Terminal Aerodrome Forecast
Issued by NWS

Home | Current Version | Previous Version | Text Only | Print | Product List | Glossary On
Versions: 1 2 3 4 5 6 7 8 9 10 11 12 13 14 15 16 17 18 19 20 21 22 23 24
723
FTUS43 KGRB 241429 AAB
TAFCWA
TAF AMD
KCWA 241429Z 2414/2512 02007KT P6SM SCT005 OVC012
      TEMPO 2414/2416 5SM -SHRA BR BKN005
     FM241600 04007KT P6SM OVC014
     FM241900 05008KT P6SM BKN025
     FM250900 02003KT 5SM BR OVC008=

USA.gov is the U.S. government's official web portal to all federal, state and local government web resources and services.